Time;durP1;ratioP1;P1;durP2;ratioP2;P2;SDS_P1;SDS_P2;PMS_P1;PMS_P2;Temp;Humidity;BMP_temperature;BMP_pressure;BME280_temperature;BME280_humidity;BME280_pressure;Samples;Min_cycle;Max_cycle;Signal;HPM_P1;HPM_P2
2023/05/29 00:00:07;;;;;;;13.70;11.15;;;409.90;2355.20;;;;;;5033167;28;20044;-81
2023/05/29 00:02:34;;;;;;;15.25;10.43;;;409.90;2355.20;;;;;;5033189;28;20026;-81
2023/05/29 00:05:02;;;;;;;18.10;10.95;;;410.00;2355.20;;;;;;5031991;28;20049;-81
2023/05/29 00:07:34;;;;;;;18.65;11.63;;;410.00;2355.20;;;;;;5032457;28;20392;-81
2023/05/29 00:10:00;;;;;;;15.77;11.93;;;410.20;2355.20;;;;;;5032197;28;20472;-81
2023/05/29 00:12:26;;;;;;;16.23;11.70;;;410.20;2355.20;;;;;;5032436;28;20029;-81
2023/05/29 00:14:52;;;;;;;14.43;11.48;;;410.20;2355.20;;;;;;5033796;28;20448;-81
2023/05/29 00:17:17;;;;;;;16.92;11.63;;;410.00;2355.20;;;;;;5032083;28;20030;-81
2023/05/29 00:19:43;;;;;;;18.25;11.27;;;410.10;2355.20;;;;;;5032378;28;20068;-81
2023/05/29 00:22:10;;;;;;;14.65;11.82;;;410.10;2355.20;;;;;;5033015;28;20029;-82
2023/05/29 00:24:35;;;;;;;16.75;11.57;;;410.10;2355.20;;;;;;5031888;28;20453;-81
2023/05/29 00:27:01;;;;;;;15.35;10.85;;;410.20;2355.20;;;;;;5035441;28;20040;-80
2023/05/29 00:29:27;;;;;;;16.00;12.30;;;410.00;2355.20;;;;;;5037009;28;20061;-82
2023/05/29 00:31:53;;;;;;;17.40;11.02;;;409.90;2355.20;;;;;;5035745;28;20029;-81
2023/05/29 00:34:23;;;;;;;17.45;11.52;;;409.90;2355.20;;;;;;5036347;28;20423;-80
2023/05/29 00:36:49;;;;;;;15.25;10.55;;;409.80;2355.20;;;;;;5036962;28;20033;-81
2023/05/29 00:39:15;;;;;;;16.92;11.43;;;409.90;2355.20;;;;;;5039338;28;20064;-80
2023/05/29 00:41:41;;;;;;;14.75;11.57;;;409.80;2355.20;;;;;;5035742;28;20029;-81
2023/05/29 00:44:07;;;;;;;14.70;11.95;;;409.70;2355.20;;;;;;5035729;28;20036;-81
2023/05/29 00:46:34;;;;;;;18.42;12.63;;;409.90;2355.20;;;;;;5035443;28;20034;-83
2023/05/29 00:49:01;;;;;;;20.98;14.20;;;409.80;2355.20;;;;;;5036395;28;20029;-79
2023/05/29 00:51:29;;;;;;;23.83;14.90;;;410.00;2355.20;;;;;;5036527;28;20029;-83
2023/05/29 00:53:55;;;;;;;16.90;13.18;;;409.90;2355.20;;;;;;5035237;28;20028;-82
2023/05/29 00:56:21;;;;;;;23.73;14.80;;;409.80;2355.20;;;;;;5035211;28;20412;-82
2023/05/29 00:58:52;;;;;;;26.05;15.93;;;410.00;2355.20;;;;;;5034747;28;20064;-81
2023/05/29 01:01:19;;;;;;;22.80;15.82;;;409.80;2355.20;;;;;;5035612;28;20491;-81
2023/05/29 01:03:45;;;;;;;21.85;17.13;;;409.70;2355.20;;;;;;5034819;28;20029;-81
2023/05/29 01:06:11;;;;;;;24.27;16.23;;;409.60;2355.20;;;;;;5034507;28;20473;-80
2023/05/29 01:08:37;;;;;;;28.73;17.65;;;409.70;2355.20;;;;;;5035266;28;20095;-80
2023/05/29 01:11:13;;;;;;;26.63;18.08;;;409.70;2355.20;;;;;;5034884;28;20026;-81
2023/05/29 01:13:42;;;;;;;24.38;15.88;;;409.60;2355.20;;;;;;5034626;28;20096;-81
2023/05/29 01:16:21;;;;;;;27.17;18.80;;;384.90;2329.60;;;;;;5034889;28;20056;-81
2023/05/29 01:19:22;;;;;;;25.35;17.83;;;384.70;2329.60;;;;;;5035672;28;20025;-80
2023/05/29 01:21:51;;;;;;;26.48;18.65;;;384.70;2329.60;;;;;;5011897;28;20124;-79
2023/05/29 01:24:52;;;;;;;25.88;18.23;;;384.60;2329.60;;;;;;5041478;28;20027;-79
2023/05/29 01:27:21;;;;;;;27.50;17.55;;;384.70;2329.60;;;;;;5059292;28;20033;-79
2023/05/29 01:29:49;;;;;;;25.35;16.95;;;384.70;2329.60;;;;;;5034727;28;20588;-80
2023/05/29 01:32:15;;;;;;;27.02;17.77;;;384.70;2329.60;;;;;;5035811;28;20037;-80
2023/05/29 01:34:41;;;;;;;23.38;17.75;;;384.80;2329.60;;;;;;5035405;28;20448;-79
2023/05/29 01:37:06;;;;;;;26.13;17.45;;;384.80;2329.60;;;;;;5035297;28;20535;-79
2023/05/29 01:39:33;;;;;;;23.77;16.55;;;384.80;2329.60;;;;;;5034297;28;20439;-79
2023/05/29 01:42:00;;;;;;;24.17;16.55;;;384.70;2329.60;;;;;;5033843;28;20033;-81
2023/05/29 01:44:27;;;;;;;24.55;16.17;;;384.70;2329.60;;;;;;5034395;28;20432;-81
2023/05/29 01:46:53;;;;;;;22.77;15.73;;;384.40;2329.60;;;;;;5033144;28;20131;-79
2023/05/29 01:49:19;;;;;;;24.17;15.23;;;384.30;2329.60;;;;;;5035706;28;20029;-81
2023/05/29 01:51:45;;;;;;;23.83;15.18;;;384.40;2329.60;;;;;;5034041;28;20021;-81
2023/05/29 01:54:11;;;;;;;24.27;15.48;;;384.60;2329.60;;;;;;5033743;28;20056;-81
2023/05/29 01:56:37;;;;;;;21.77;15.32;;;384.60;2329.60;;;;;;5033892;28;20520;-81
2023/05/29 01:59:04;;;;;;;20.83;14.68;;;384.60;2329.60;;;;;;5035215;28;20021;-82
2023/05/29 02:01:30;;;;;;;22.67;16.48;;;384.60;2329.60;;;;;;5034641;28;20025;-82
2023/05/29 02:03:56;;;;;;;21.13;15.10;;;384.60;2329.60;;;;;;5033767;28;20030;-79
2023/05/29 02:06:22;;;;;;;20.10;14.85;;;384.50;2329.60;;;;;;5033545;28;20537;-80
2023/05/29 02:08:48;;;;;;;22.60;15.43;;;384.40;2329.60;;;;;;5034691;28;20373;-79
2023/05/29 02:11:14;;;;;;;23.52;15.23;;;384.40;2329.60;;;;;;5034863;28;20033;-79
2023/05/29 02:13:40;;;;;;;20.45;13.63;;;384.50;2329.60;;;;;;5033552;28;20022;-79
2023/05/29 02:16:06;;;;;;;18.20;13.48;;;384.70;2329.60;;;;;;5033297;28;20036;-80
2023/05/29 02:18:31;;;;;;;17.70;12.75;;;384.70;2329.60;;;;;;5034739;28;20049;-79
2023/05/29 02:20:57;;;;;;;17.08;12.35;;;384.70;2329.60;;;;;;5033501;28;20037;-79
2023/05/29 02:23:23;;;;;;;15.88;12.25;;;384.70;2329.60;;;;;;5034088;28;20488;-80
2023/05/29 02:25:49;;;;;;;18.67;13.07;;;384.70;2329.60;;;;;;5033449;28;20131;-80
2023/05/29 02:28:14;;;;;;;16.92;13.20;;;384.70;2329.60;;;;;;5033344;28;20033;-79
2023/05/29 02:30:40;;;;;;;15.30;11.93;;;384.70;2329.60;;;;;;5032910;28;20052;-79
2023/05/29 02:33:06;;;;;;;15.38;11.73;;;384.70;2329.60;;;;;;5033194;28;20032;-79
2023/05/29 02:35:32;;;;;;;17.20;14.20;;;384.90;2329.60;;;;;;5033153;28;20108;-80
2023/05/29 02:37:58;;;;;;;18.92;12.30;;;384.60;2329.60;;;;;;5033224;28;20033;-81
2023/05/29 02:40:24;;;;;;;14.55;11.80;;;384.40;2329.60;;;;;;5051965;28;20039;-79
2023/05/29 02:42:50;;;;;;;20.38;13.15;;;384.40;2329.60;;;;;;5052765;28;20506;-80
2023/05/29 02:45:16;;;;;;;14.40;10.95;;;384.40;2329.60;;;;;;5053338;28;20423;-79
2023/05/29 02:47:42;;;;;;;15.55;11.32;;;384.30;2329.60;;;;;;5050619;28;20041;-79
2023/05/29 02:50:08;;;;;;;18.13;11.88;;;384.50;2329.60;;;;;;5050586;28;20032;-80
2023/05/29 02:52:36;;;;;;;16.80;11.43;;;384.70;2329.60;;;;;;5054239;28;20369;-79
2023/05/29 02:55:03;;;;;;;13.48;10.95;;;384.40;2329.60;;;;;;5052762;28;20119;-81
2023/05/29 02:57:29;;;;;;;19.45;12.50;;;384.40;2329.60;;;;;;5054175;28;20039;-79
2023/05/29 02:59:55;;;;;;;15.95;11.98;;;384.50;2329.60;;;;;;5052514;28;20025;-80
2023/05/29 03:02:21;;;;;;;19.60;12.23;;;384.50;2329.60;;;;;;5052777;28;20159;-81
2023/05/29 03:04:50;;;;;;;18.50;10.80;;;384.40;2329.60;;;;;;5052033;28;20049;-80
2023/05/29 03:07:17;;;;;;;21.02;11.55;;;384.40;2329.60;;;;;;5052363;28;20492;-80
2023/05/29 03:09:42;;;;;;;18.00;11.07;;;384.40;2329.60;;;;;;5053176;28;20063;-81
2023/05/29 03:12:08;;;;;;;15.13;9.93;;;384.40;2329.60;;;;;;5052666;28;20029;-80
2023/05/29 03:14:35;;;;;;;14.93;11.05;;;384.50;2329.60;;;;;;5069396;28;20457;-80
2023/05/29 03:17:05;;;;;;;16.40;10.23;;;384.40;2329.60;;;;;;5052709;28;20029;-80
2023/05/29 03:19:31;;;;;;;17.48;11.63;;;384.30;2329.60;;;;;;5052483;28;20098;-80
2023/05/29 03:21:57;;;;;;;16.27;11.20;;;384.30;2329.60;;;;;;5052674;28;20116;-80
2023/05/29 03:24:23;;;;;;;15.73;11.65;;;384.30;2329.60;;;;;;5051120;28;20116;-80
2023/05/29 03:26:49;;;;;;;15.43;11.20;;;384.30;2329.60;;;;;;5052291;28;20491;-81
2023/05/29 03:29:16;;;;;;;18.30;12.57;;;384.40;2329.60;;;;;;5052485;28;20025;-81
2023/05/29 03:31:42;;;;;;;17.38;11.13;;;384.50;2329.60;;;;;;5053973;28;20029;-81
2023/05/29 03:34:08;;;;;;;19.70;11.23;;;384.50;2329.60;;;;;;5052279;28;20037;-79
2023/05/29 03:36:36;;;;;;;17.60;11.55;;;384.50;2329.60;;;;;;5052424;28;20389;-80
2023/05/29 03:39:04;;;;;;;13.23;11.15;;;384.60;2329.60;;;;;;5052038;28;20025;-81
2023/05/29 03:41:30;;;;;;;13.70;10.93;;;384.50;2329.60;;;;;;5052332;28;20025;-80
2023/05/29 03:43:56;;;;;;;18.63;11.40;;;384.60;2329.60;;;;;;5052091;28;20036;-80
2023/05/29 03:46:22;;;;;;;14.88;11.90;;;384.50;2329.60;;;;;;5051910;28;20032;-80
2023/05/29 03:48:48;;;;;;;16.23;12.00;;;384.60;2329.60;;;;;;5052356;28;20075;-80
2023/05/29 03:51:13;;;;;;;18.50;12.23;;;384.60;2329.60;;;;;;5052157;28;20029;-80
2023/05/29 03:53:39;;;;;;;13.93;11.95;;;384.50;2329.60;;;;;;5052086;28;20358;-81
2023/05/29 03:56:05;;;;;;;13.13;11.55;;;384.50;2329.60;;;;;;5052158;28;20116;-79
2023/05/29 03:58:31;;;;;;;14.20;11.35;;;384.40;2329.60;;;;;;5052186;28;20059;-81
2023/05/29 04:00:57;;;;;;;16.33;11.88;;;384.40;2329.60;;;;;;5055830;28;20035;-81
2023/05/29 04:03:23;;;;;;;16.92;12.27;;;384.30;2329.60;;;;;;5056205;28;20060;-80
2023/05/29 04:05:48;;;;;;;16.13;10.95;;;384.30;2329.60;;;;;;5055459;28;20041;-80
2023/05/29 04:08:14;;;;;;;20.88;12.13;;;384.40;2329.60;;;;;;5055616;28;20124;-80
2023/05/29 04:10:40;;;;;;;17.25;11.75;;;384.40;2329.60;;;;;;5055863;28;20025;-80
2023/05/29 04:13:06;;;;;;;14.38;10.82;;;384.50;2329.60;;;;;;5055907;28;20025;-81
2023/05/29 04:15:33;;;;;;;18.92;12.35;;;384.60;2329.60;;;;;;5055307;28;20116;-81
2023/05/29 04:17:59;;;;;;;16.38;11.85;;;384.60;2329.60;;;;;;5055699;28;20040;-80
2023/05/29 04:20:25;;;;;;;18.55;12.40;;;384.60;2329.60;;;;;;5055705;28;20059;-80
2023/05/29 04:22:51;;;;;;;16.50;11.55;;;384.60;2329.60;;;;;;5057056;28;20029;-81
2023/05/29 04:25:17;;;;;;;20.38;11.85;;;384.70;2329.60;;;;;;5056647;28;20017;-80
2023/05/29 04:27:49;;;;;;;13.50;11.68;;;384.70;2329.60;;;;;;5055641;28;20496;-80
2023/05/29 04:30:16;;;;;;;16.23;12.23;;;384.80;2329.60;;;;;;5057078;28;20040;-81
2023/05/29 04:32:42;;;;;;;16.33;13.13;;;384.80;2329.60;;;;;;5055552;28;20029;-80
2023/05/29 04:35:09;;;;;;;16.70;12.95;;;384.70;2329.60;;;;;;5055114;28;20052;-81
2023/05/29 04:37:38;;;;;;;15.15;12.07;;;384.70;2329.60;;;;;;5056043;28;20071;-81
2023/05/29 04:40:09;;;;;;;21.55;13.88;;;384.70;2329.60;;;;;;5055417;28;20127;-82
2023/05/29 04:42:40;;;;;;;21.48;13.57;;;384.70;2329.60;;;;;;5055137;28;20464;-81
2023/05/29 04:45:06;;;;;;;19.33;14.40;;;384.90;2329.60;;;;;;5055403;28;20021;-80
2023/05/29 04:47:32;;;;;;;19.27;13.98;;;384.90;2329.60;;;;;;5056437;28;20465;-80
2023/05/29 04:50:02;;;;;;;17.05;12.68;;;409.60;2355.20;;;;;;5054940;28;20436;-81
2023/05/29 04:52:28;;;;;;;18.50;13.25;;;409.70;2355.20;;;;;;5054943;28;20361;-80
2023/05/29 04:54:54;;;;;;;21.17;13.23;;;409.70;2355.20;;;;;;5055142;28;20123;-81
2023/05/29 04:57:20;;;;;;;20.63;12.23;;;409.80;2355.20;;;;;;5054806;28;20468;-82
2023/05/29 04:59:46;;;;;;;18.83;13.68;;;409.80;2355.20;;;;;;5054734;28;20025;-81
2023/05/29 05:02:12;;;;;;;22.75;14.13;;;409.70;2355.20;;;;;;5055918;28;20078;-81
2023/05/29 05:04:37;;;;;;;15.50;12.82;;;409.90;2355.20;;;;;;5054315;28;20057;-80
2023/05/29 05:07:05;;;;;;;14.35;12.48;;;410.00;2355.20;;;;;;5054865;28;20461;-80
2023/05/29 05:09:31;;;;;;;14.80;11.70;;;410.00;2355.20;;;;;;5054732;28;20025;-81
2023/05/29 05:11:57;;;;;;;17.02;11.27;;;410.20;2355.20;;;;;;5055206;28;20017;-81
2023/05/29 05:14:23;;;;;;;13.63;11.38;;;410.20;2355.20;;;;;;5054678;28;20021;-81
2023/05/29 05:16:49;;;;;;;16.80;12.13;;;410.20;2355.20;;;;;;5054751;28;20076;-80
2023/05/29 05:19:15;;;;;;;13.65;11.93;;;410.20;2355.20;;;;;;5074582;28;20020;-79
2023/05/29 05:21:41;;;;;;;17.33;11.18;;;410.30;2355.20;;;;;;5064469;28;20446;-82
2023/05/29 05:24:06;;;;;;;13.20;10.85;;;410.30;2355.20;;;;;;5054805;28;20020;-81
2023/05/29 05:26:32;;;;;;;18.00;11.48;;;410.50;2355.20;;;;;;5055021;28;20056;-81
2023/05/29 05:28:58;;;;;;;14.18;11.15;;;410.50;2355.20;;;;;;5054645;28;20388;-81
2023/05/29 05:31:25;;;;;;;14.15;11.30;;;410.50;2355.20;;;;;;5054304;28;20036;-81
2023/05/29 05:33:50;;;;;;;16.48;11.15;;;435.30;2355.20;;;;;;5054283;28;20031;-81
2023/05/29 05:36:16;;;;;;;14.80;11.30;;;435.30;2355.20;;;;;;5054352;28;20025;-81
2023/05/29 05:38:42;;;;;;;33.35;12.73;;;435.40;2355.20;;;;;;5053979;28;20479;-80
2023/05/29 05:41:08;;;;;;;18.52;10.82;;;435.50;2355.20;;;;;;5054155;28;20033;-81
2023/05/29 05:43:34;;;;;;;12.18;10.43;;;435.50;2355.20;;;;;;5055207;28;20527;-83
2023/05/29 05:45:59;;;;;;;16.20;11.90;;;435.80;2355.20;;;;;;5053902;28;20030;-83
2023/05/29 05:48:25;;;;;;;21.23;10.40;;;436.00;2355.20;;;;;;5053537;28;20091;-82
2023/05/29 05:50:51;;;;;;;17.45;10.68;;;436.10;2355.20;;;;;;5053934;28;20028;-82
2023/05/29 05:53:17;;;;;;;16.52;10.85;;;460.80;2380.80;;;;;;5053764;28;20025;-82
2023/05/29 05:55:43;;;;;;;14.20;10.95;;;460.90;2380.80;;;;;;5053923;28;20029;-81
2023/05/29 05:58:09;;;;;;;13.10;10.15;;;461.10;2380.80;;;;;;5053820;28;20029;-81
2023/05/29 06:00:35;;;;;;;11.02;9.57;;;461.10;2380.80;;;;;;5053589;28;20029;-84
2023/05/29 06:03:03;;;;;;;11.63;9.32;;;461.30;2380.80;;;;;;5055319;28;20037;-85
2023/05/29 06:05:29;;;;;;;17.15;10.00;;;461.40;2380.80;;;;;;5070807;28;20048;-84
2023/05/29 06:07:55;;;;;;;13.88;9.80;;;461.40;2380.80;;;;;;5053436;28;20029;-82
2023/05/29 06:10:21;;;;;;;14.93;10.18;;;461.40;2380.80;;;;;;5055240;28;20029;-82
2023/05/29 06:12:47;;;;;;;16.13;13.75;;;461.40;2380.80;;;;;;5053382;28;20568;-84
2023/05/29 06:15:13;;;;;;;14.65;10.35;;;461.50;2380.80;;;;;;5055021;28;20040;-83
2023/05/29 06:17:39;;;;;;;11.23;8.73;;;461.50;2380.80;;;;;;5053554;28;20056;-83
2023/05/29 06:20:10;;;;;;;10.52;8.70;;;461.60;2380.80;;;;;;5070251;28;20071;-83
2023/05/29 06:22:36;;;;;;;10.82;9.45;;;461.60;2380.80;;;;;;5070504;28;20444;-82
2023/05/29 06:25:02;;;;;;;11.55;9.95;;;461.50;2380.80;;;;;;5076049;28;20031;-79
2023/05/29 06:27:28;;;;;;;17.00;10.10;;;461.50;2380.80;;;;;;5075861;28;20032;-78
2023/05/29 06:29:53;;;;;;;14.27;9.50;;;461.50;2380.80;;;;;;5062632;28;20025;-79
2023/05/29 06:32:20;;;;;;;13.27;9.45;;;461.60;2380.80;;;;;;5077254;28;20051;-78
2023/05/29 06:34:45;;;;;;;15.02;9.32;;;461.70;2380.80;;;;;;5063372;28;20036;-79
2023/05/29 06:37:11;;;;;;;17.48;11.10;;;461.70;2380.80;;;;;;5077393;28;20025;-79
2023/05/29 06:39:37;;;;;;;10.05;8.63;;;486.40;2380.80;;;;;;5058518;28;20029;-79
2023/05/29 06:42:03;;;;;;;9.40;7.75;;;486.50;2380.80;;;;;;5058498;28;20021;-79
2023/05/29 06:44:29;;;;;;;14.95;9.43;;;486.70;2380.80;;;;;;5071872;28;20396;-80
2023/05/29 06:46:55;;;;;;;13.20;8.00;;;486.70;2380.80;;;;;;5056480;28;20029;-83
2023/05/29 06:49:20;;;;;;;12.93;6.75;;;486.70;2380.80;;;;;;5071215;28;20174;-82
2023/05/29 06:51:46;;;;;;;14.60;7.32;;;486.80;2380.80;;;;;;5070430;28;20027;-82
2023/05/29 06:54:12;;;;;;;9.55;7.15;;;486.90;2380.80;;;;;;5070549;28;20052;-82
2023/05/29 06:56:37;;;;;;;10.40;7.00;;;486.90;2380.80;;;;;;5070129;28;20068;-83
2023/05/29 06:59:03;;;;;;;10.00;7.28;;;486.90;2380.80;;;;;;5072150;28;20389;-82
2023/05/29 07:01:30;;;;;;;9.23;7.03;;;487.10;2380.80;;;;;;5056435;28;20021;-82
2023/05/29 07:03:56;;;;;;;12.15;8.00;;;487.30;2380.80;;;;;;5070990;28;20029;-83
2023/05/29 07:06:21;;;;;;;7.43;6.50;;;512.10;2380.80;;;;;;5070524;28;20056;-81
2023/05/29 07:08:47;;;;;;;8.95;7.18;;;512.10;2380.80;;;;;;5069207;28;20464;-82
2023/05/29 07:11:13;;;;;;;10.88;7.82;;;512.10;2380.80;;;;;;5069774;28;20025;-82
2023/05/29 07:13:39;;;;;;;8.95;7.25;;;512.30;2380.80;;;;;;5069194;28;20497;-83
2023/05/29 07:16:05;;;;;;;12.07;7.90;;;512.40;2380.80;;;;;;5069359;28;20083;-82
2023/05/29 07:18:30;;;;;;;10.20;6.88;;;512.40;2380.80;;;;;;5054336;28;20029;-79
2023/05/29 07:20:57;;;;;;;9.73;7.03;;;512.60;2380.80;;;;;;5069849;28;20036;-82
2023/05/29 07:23:24;;;;;;;9.27;7.50;;;512.80;2380.80;;;;;;5068826;28;20413;-80
2023/05/29 07:25:49;;;;;;;12.25;6.93;;;512.90;2380.80;;;;;;5053689;28;20029;-80
2023/05/29 07:28:15;;;;;;;8.90;6.80;;;537.70;2406.40;;;;;;5052630;28;20374;-81
2023/05/29 07:30:41;;;;;;;8.90;6.68;;;537.70;2406.40;;;;;;5052308;28;20354;-81
2023/05/29 07:33:07;;;;;;;9.15;6.80;;;538.00;2406.40;;;;;;5052614;28;20029;-81
2023/05/29 07:35:33;;;;;;;11.30;6.65;;;538.00;2406.40;;;;;;5055726;28;20043;-81
2023/05/29 07:37:59;;;;;;;9.57;6.30;;;537.90;2406.40;;;;;;5056139;28;20036;-81
2023/05/29 07:40:26;;;;;;;13.30;6.88;;;538.00;2406.40;;;;;;5056324;28;20025;-81
2023/05/29 07:42:52;;;;;;;8.30;6.78;;;538.00;2406.40;;;;;;5056440;28;20036;-81
2023/05/29 07:45:17;;;;;;;8.40;6.45;;;538.30;2406.40;;;;;;5056113;28;20400;-79
2023/05/29 07:47:43;;;;;;;9.05;5.88;;;538.50;2406.40;;;;;;5056461;28;20033;-81
2023/05/29 07:50:10;;;;;;;7.65;6.82;;;538.40;2406.40;;;;;;5056469;28;20182;-81
2023/05/29 07:52:36;;;;;;;7.20;5.97;;;563.20;2432.00;;;;;;5057712;28;20546;-80
2023/05/29 07:55:02;;;;;;;9.35;6.45;;;563.30;2432.00;;;;;;5056035;28;20021;-81
2023/05/29 07:57:28;;;;;;;10.38;6.47;;;563.20;2432.00;;;;;;5056016;28;20029;-81
2023/05/29 07:59:54;;;;;;;11.68;6.25;;;563.20;2432.00;;;;;;5055817;28;20021;-81
2023/05/29 08:02:20;;;;;;;8.38;6.00;;;563.20;2432.00;;;;;;5056053;28;20022;-81
2023/05/29 08:04:46;;;;;;;8.38;6.07;;;563.20;2432.00;;;;;;5055374;28;20045;-81
2023/05/29 08:07:12;;;;;;;8.80;6.47;;;563.20;2432.00;;;;;;5055855;28;20037;-81
2023/05/29 08:09:38;;;;;;;9.25;6.65;;;563.20;2432.00;;;;;;5057644;28;20480;-81
2023/05/29 08:12:05;;;;;;;9.20;6.30;;;538.50;2406.40;;;;;;5056480;28;20025;-82
2023/05/29 08:14:31;;;;;;;9.15;7.00;;;538.50;2406.40;;;;;;5056197;28;20024;-81
2023/05/29 08:16:57;;;;;;;8.07;6.60;;;538.50;2406.40;;;;;;5057456;28;20484;-82
2023/05/29 08:19:23;;;;;;;12.15;6.68;;;538.50;2406.40;;;;;;5057331;28;20147;-81
2023/05/29 08:21:49;;;;;;;12.88;6.57;;;538.50;2406.40;;;;;;5056861;28;20067;-82
2023/05/29 08:24:15;;;;;;;7.78;6.72;;;563.40;2432.00;;;;;;5057293;28;20522;-81
2023/05/29 08:26:43;;;;;;;7.55;6.43;;;563.60;2432.00;;;;;;5055693;28;20167;-82
2023/05/29 08:29:09;;;;;;;12.10;6.75;;;563.50;2432.00;;;;;;5055710;28;20033;-82
2023/05/29 08:31:35;;;;;;;7.03;5.88;;;563.40;2432.00;;;;;;5056869;28;20036;-80
2023/05/29 08:34:01;;;;;;;8.73;6.95;;;563.20;2432.00;;;;;;5056577;28;20021;-81
2023/05/29 08:36:27;;;;;;;8.30;6.63;;;563.60;2432.00;;;;;;5055876;28;20033;-81
2023/05/29 08:38:53;;;;;;;7.20;5.85;;;563.60;2432.00;;;;;;5077157;28;20021;-82
2023/05/29 08:41:36;;;;;;;8.88;6.75;;;563.40;2432.00;;;;;;5064347;28;20522;-82
2023/05/29 08:44:05;;;;;;;8.80;6.97;;;563.60;2432.00;;;;;;5057944;28;20028;-82
2023/05/29 08:46:32;;;;;;;9.35;6.22;;;563.80;2432.00;;;;;;5056887;28;20040;-82
2023/05/29 08:49:01;;;;;;;7.78;5.70;;;588.90;2432.00;;;;;;5054177;28;20036;-82
2023/05/29 08:51:31;;;;;;;7.55;5.65;;;589.20;2432.00;;;;;;5048751;28;20029;-82
2023/05/29 08:53:57;;;;;;;14.07;6.88;;;589.50;2432.00;;;;;;5056293;28;20469;-82
2023/05/29 08:56:23;;;;;;;8.40;6.32;;;614.40;2432.00;;;;;;5056427;28;20029;-82
2023/05/29 08:58:50;;;;;;;8.50;6.20;;;614.50;2432.00;;;;;;5056881;28;20035;-83
2023/05/29 09:01:17;;;;;;;8.40;6.60;;;614.50;2432.00;;;;;;5056030;28;20489;-82
2023/05/29 09:03:43;;;;;;;7.32;6.13;;;614.60;2432.00;;;;;;5057440;28;20031;-83
2023/05/29 09:06:09;;;;;;;10.18;6.18;;;614.80;2432.00;;;;;;5055295;28;20072;-83
2023/05/29 09:08:35;;;;;;;8.85;6.30;;;614.80;2432.00;;;;;;5055095;28;20388;-84
2023/05/29 09:11:01;;;;;;;7.55;6.40;;;615.20;2432.00;;;;;;5057457;28;20021;-84
2023/05/29 09:13:28;;;;;;;9.70;5.70;;;640.10;2432.00;;;;;;5056482;28;20114;-84
2023/05/29 09:16:01;;;;;;;8.32;5.45;;;640.50;2432.00;;;;;;5057415;28;20529;-83
2023/05/29 09:18:31;;;;;;;10.63;7.25;;;640.60;2432.00;;;;;;5055582;28;20025;-84
2023/05/29 09:20:58;;;;;;;8.40;7.45;;;640.90;2406.40;;;;;;5058188;28;20100;-85
2023/05/29 09:23:26;;;;;;;6.75;5.40;;;640.40;2380.80;;;;;;5056488;28;20167;-82
2023/05/29 09:25:53;;;;;;;9.40;5.30;;;640.00;2380.80;;;;;;5055394;28;20060;-84
2023/05/29 09:28:23;;;;;;;7.35;5.85;;;640.40;2406.40;;;;;;5035633;28;20030;-84
2023/05/29 09:30:49;;;;;;;7.57;5.40;;;640.20;2432.00;;;;;;5035807;28;20036;-84
2023/05/29 09:33:16;;;;;;;9.57;5.72;;;640.00;2406.40;;;;;;5037853;28;20531;-85
2023/05/29 09:35:43;;;;;;;11.10;6.93;;;615.20;2432.00;;;;;;5037689;28;20531;-84
2023/05/29 09:38:10;;;;;;;6.85;5.00;;;640.10;2406.40;;;;;;5039373;28;20033;-85
2023/05/29 09:40:37;;;;;;;7.32;5.35;;;640.00;2380.80;;;;;;5039019;28;20021;-85
2023/05/29 09:43:11;;;;;;;7.45;6.32;;;614.90;2406.40;;;;;;5037176;28;20428;-84
2023/05/29 09:45:58;;;;;;;6.75;5.72;;;615.10;2432.00;;;;;;5038411;28;20025;-85
2023/05/29 09:48:24;;;;;;;10.02;6.35;;;615.30;2432.00;;;;;;5048103;28;20485;-82
2023/05/29 09:50:50;;;;;;;8.73;6.35;;;640.00;2432.00;;;;;;5072544;28;20037;-85
2023/05/29 09:53:21;;;;;;;8.27;5.93;;;640.00;2432.00;;;;;;5071211;28;20070;-86
2023/05/29 09:55:50;;;;;;;9.70;5.88;;;615.20;2432.00;;;;;;5056461;28;20032;-85
2023/05/29 09:58:17;;;;;;;8.20;6.00;;;615.00;2432.00;;;;;;5057536;28;20037;-86
2023/05/29 10:00:43;;;;;;;11.95;8.63;;;614.60;2432.00;;;;;;5056608;28;20024;-83
2023/05/29 10:03:12;;;;;;;8.23;5.45;;;614.70;2432.00;;;;;;5056654;28;20083;-83
2023/05/29 10:05:50;;;;;;;8.18;5.18;;;614.80;2432.00;;;;;;5056823;28;20106;-87
2023/05/29 10:08:17;;;;;;;6.30;4.95;;;615.20;2432.00;;;;;;5057887;28;20116;-83
2023/05/29 10:10:47;;;;;;;9.07;6.07;;;615.10;2432.00;;;;;;5057585;28;20033;-84
2023/05/29 10:13:14;;;;;;;7.22;5.93;;;615.20;2432.00;;;;;;5058162;28;20021;-84
2023/05/29 10:15:43;;;;;;;14.65;12.13;;;615.30;2432.00;;;;;;5055412;28;20119;-84
2023/05/29 10:18:20;;;;;;;7.80;5.88;;;640.60;2432.00;;;;;;5058167;28;20461;-83
2023/05/29 10:20:51;;;;;;;9.35;5.88;;;640.70;2432.00;;;;;;5055976;28;20036;-84
2023/05/29 10:23:20;;;;;;;10.18;5.65;;;640.90;2380.80;;;;;;5055481;28;20037;-84
2023/05/29 10:25:49;;;;;;;8.75;5.75;;;665.60;2380.80;;;;;;5057098;28;20087;-85
2023/05/29 10:28:15;;;;;;;9.18;5.53;;;665.90;2355.20;;;;;;5055667;28;20025;-86
2023/05/29 10:30:52;;;;;;;7.25;5.85;;;;;;;;;;5055434;28;20036;-85
2023/05/29 10:33:21;;;;;;;7.78;5.60;;;665.70;2355.20;;;;;;5054146;28;20033;-84
2023/05/29 10:35:55;;;;;;;12.13;6.10;;;665.70;2380.80;;;;;;5054712;28;20025;-83
2023/05/29 10:38:21;;;;;;;8.05;5.68;;;640.70;2355.20;;;;;;5055000;28;20043;-85
2023/05/29 10:40:47;;;;;;;9.82;5.57;;;640.50;2380.80;;;;;;5053911;28;20025;-86
2023/05/29 10:43:33;;;;;;;6.55;5.47;;;640.20;2406.40;;;;;;5055295;28;20032;-84
2023/05/29 10:45:59;;;;;;;10.02;5.10;;;640.10;2406.40;;;;;;5055880;28;20033;-83
2023/05/29 10:48:28;;;;;;;8.38;5.30;;;615.30;2432.00;;;;;;5053930;28;20064;-83
2023/05/29 10:50:55;;;;;;;7.93;5.93;;;640.20;2432.00;;;;;;5055228;28;20029;-83
2023/05/29 10:53:26;;;;;;;8.00;5.18;;;640.70;2432.00;;;;;;5054048;28;20039;-83
2023/05/29 10:55:53;;;;;;;8.97;5.27;;;640.90;2355.20;;;;;;5054353;28;20033;-82
2023/05/29 10:58:20;;;;;;;6.55;4.68;;;640.60;2355.20;;;;;;5054488;28;20064;-84
2023/05/29 11:00:47;;;;;;;6.82;4.32;;;640.50;2355.20;;;;;;5054481;28;20025;-83
2023/05/29 11:03:22;;;;;;;8.05;6.40;;;640.50;2355.20;;;;;;5053159;28;20037;-83
2023/05/29 11:06:04;;;;;;;7.88;5.00;;;640.40;2406.40;;;;;;5054955;28;20278;-85
2023/05/29 11:08:47;;;;;;;6.40;4.85;;;640.40;2406.40;;;;;;5053759;28;20353;-84
2023/05/29 11:11:13;;;;;;;;;;;640.50;2380.80;;;;;;5054009;28;20061;-84
2023/05/29 11:13:40;;;;;;;7.75;5.38;;;665.70;2380.80;;;;;;5055412;28;19905;-82
2023/05/29 11:16:33;;;;;;;7.15;4.63;;;666.30;2329.60;;;;;;5053496;28;20021;-82
2023/05/29 11:19:04;;;;;;;7.68;4.68;;;691.40;2355.20;;;;;;5054031;28;20478;-84
2023/05/29 11:21:39;;;;;;;9.85;5.05;;;;;;;;;;5054916;28;20036;-85
2023/05/29 11:24:06;;;;;;;8.55;4.35;;;666.40;2278.40;;;;;;5055573;28;20427;-84
2023/05/29 11:26:33;;;;;;;7.95;4.45;;;665.80;2304.00;;;;;;5055107;28;20036;-85
2023/05/29 11:29:04;;;;;;;6.80;3.97;;;665.60;2355.20;;;;;;5053460;28;20033;-84
2023/05/29 11:31:34;;;;;;;6.47;4.03;;;640.70;2329.60;;;;;;5053222;28;20025;-83
2023/05/29 11:34:02;;;;;;;7.60;4.80;;;640.50;2406.40;;;;;;5053191;28;20025;-84
2023/05/29 11:36:28;;;;;;;8.77;4.68;;;640.50;2406.40;;;;;;5052876;28;20033;-84
2023/05/29 11:38:54;;;;;;;8.63;5.55;;;640.20;2406.40;;;;;;5053379;28;20063;-85
2023/05/29 11:41:20;;;;;;;12.15;4.97;;;640.20;2406.40;;;;;;5053285;28;20059;-85
2023/05/29 11:44:06;;;;;;;8.35;4.40;;;640.10;2432.00;;;;;;5052690;28;20178;-84
2023/05/29 11:46:32;;;;;;;7.68;4.57;;;640.00;2406.40;;;;;;5052787;28;20044;-85
2023/05/29 11:48:59;;;;;;;8.57;6.03;;;640.00;2406.40;;;;;;5053073;28;20032;-84
2023/05/29 11:51:26;;;;;;;11.32;6.38;;;615.30;2355.20;;;;;;5053160;28;20029;-83
2023/05/29 11:53:58;;;;;;;8.13;4.78;;;615.20;2380.80;;;;;;5053762;28;20083;-84
2023/05/29 11:56:25;;;;;;;11.27;6.15;;;615.20;2355.20;;;;;;5052856;28;20029;-84
2023/05/29 11:58:55;;;;;;;9.88;4.93;;;615.20;2355.20;;;;;;5053250;28;20068;-84
2023/05/29 12:01:21;;;;;;;7.68;3.83;;;615.20;2329.60;;;;;;5050889;28;20087;-80
2023/05/29 12:03:47;;;;;;;11.40;4.97;;;615.20;2278.40;;;;;;5066960;28;20055;-82
2023/05/29 12:06:13;;;;;;;9.95;4.53;;;615.10;2252.80;;;;;;5039368;28;20053;-84
2023/05/29 12:08:39;;;;;;;12.52;4.90;;;614.80;2355.20;;;;;;5033725;28;20036;-84